Time;durP1;ratioP1;P1;durP2;ratioP2;P2;SDS_P1;SDS_P2;PMS_P1;PMS_P2;Temp;Humidity;BMP_temperature;BMP_pressure;BME280_temperature;BME280_humidity;BME280_pressure;Samples;Min_cycle;Max_cycle;Signal;HPM_P1;HPM_P2
2021/12/06 00:00:25;;;;;;;10.93;5.80;;;;;;;7.44;71.34;98044.03;5052454;28;20021;-47
2021/12/06 00:02:53;;;;;;;13.82;9.35;;;;;;;7.51;71.13;98044.88;5052531;28;20048;-47
2021/12/06 00:05:22;;;;;;;16.27;12.13;;;;;;;7.58;70.69;98047.47;5052280;28;20021;-47
2021/12/06 00:07:48;;;;;;;15.13;12.15;;;;;;;7.61;70.26;98044.50;5052381;28;20522;-47
2021/12/06 00:10:14;;;;;;;18.55;10.80;;;;;;;7.74;69.88;98044.50;5052275;28;20071;-48
2021/12/06 00:12:41;;;;;;;30.08;24.75;;;;;;;7.82;69.19;98047.94;5052323;28;20071;-47
2021/12/06 00:15:07;;;;;;;167.38;110.68;;;;;;;7.84;69.49;98051.16;5052202;28;20078;-48
2021/12/06 00:17:33;;;;;;;21.73;9.38;;;;;;;7.89;68.80;98060.03;5052241;28;20055;-47
2021/12/06 00:19:59;;;;;;;12.30;3.65;;;;;;;7.95;68.66;98053.22;5052089;28;20028;-47
2021/12/06 00:22:25;;;;;;;13.70;4.38;;;;;;;7.94;68.66;98056.81;5052310;28;20029;-46
2021/12/06 00:24:55;;;;;;;7.80;2.97;;;;;;;7.95;68.60;98059.22;5052059;28;20027;-47
2021/12/06 00:27:23;;;;;;;6.57;3.72;;;;;;;7.97;68.14;98066.88;5052002;28;20029;-47
2021/12/06 00:29:49;;;;;;;8.18;3.28;;;;;;;7.92;68.43;98066.66;5052016;28;20112;-48
2021/12/06 00:32:16;;;;;;;7.88;3.60;;;;;;;7.95;68.67;98068.88;5051932;28;20036;-47
2021/12/06 00:34:42;;;;;;;9.60;2.75;;;;;;;8.07;67.77;98063.84;5051886;28;20021;-47
2021/12/06 00:37:19;;;;;;;8.60;4.63;;;;;;;8.15;68.08;98061.88;5051684;28;20060;-47
2021/12/06 00:39:46;;;;;;;6.35;2.53;;;;;;;8.17;66.61;98074.75;5051837;28;20445;-46
2021/12/06 00:42:14;;;;;;;1999.90;999.90;;;;;;;7.70;66.13;98076.44;5051760;28;20021;-48
2021/12/06 00:44:39;;;;;;;1240.18;793.72;;;;;;;7.51;67.32;98078.81;5051664;28;20533;-46
2021/12/06 00:47:06;;;;;;;667.65;408.50;;;;;;;7.36;67.70;98076.34;5051646;28;20021;-47
2021/12/06 00:49:32;;;;;;;515.97;336.65;;;;;;;6.86;66.58;98080.06;5051657;28;20025;-47
2021/12/06 00:51:58;;;;;;;381.50;324.60;;;;;;;6.56;68.75;98086.31;5051599;28;20043;-47
2021/12/06 00:54:23;;;;;;;127.63;88.10;;;;;;;6.49;68.30;98084.63;5051681;28;20025;-47
2021/12/06 00:56:49;;;;;;;92.28;65.47;;;;;;;6.49;69.18;98090.66;5051662;28;20021;-47
2021/12/06 00:59:15;;;;;;;29.10;15.32;;;;;;;6.56;69.27;98091.53;5033775;28;20028;-48
2021/12/06 01:01:40;;;;;;;42.58;27.42;;;;;;;6.63;69.92;98082.94;5051533;28;20026;-48
2021/12/06 01:04:06;;;;;;;15.82;6.43;;;;;;;6.67;69.02;98095.41;5051574;28;20025;-48
2021/12/06 01:06:32;;;;;;;16.30;8.80;;;;;;;6.67;68.89;98102.44;5051385;28;20086;-47
2021/12/06 01:08:58;;;;;;;10.50;6.05;;;;;;;6.68;68.36;98104.03;5051519;28;20033;-48
2021/12/06 01:11:24;;;;;;;8.88;4.32;;;;;;;6.68;68.99;98107.47;5055216;28;20028;-48
2021/12/06 01:13:50;;;;;;;7.78;4.30;;;;;;;6.70;69.06;98102.03;5037579;28;20112;-48
2021/12/06 01:16:16;;;;;;;12.07;7.00;;;;;;;6.77;69.28;98111.53;5055531;28;20017;-47
2021/12/06 01:18:42;;;;;;;7.22;3.47;;;;;;;6.83;69.17;98107.34;5055497;28;20021;-47
2021/12/06 01:21:40;;;;;;;12.52;6.20;;;;;;;6.89;68.78;98111.81;5037469;28;20025;-48
2021/12/06 01:24:00;;;;;;;6.60;3.38;;;;;;;6.87;69.67;98116.41;5053965;28;20120;-48
2021/12/06 01:29:44;;;;;;;4.43;3.03;;;;;;;6.93;68.71;98127.88;5055650;28;20047;-48
2021/12/06 01:40:22;;;;;;;9.88;5.45;;;;;;;6.82;69.20;98134.41;5035493;28;20036;-48
2021/12/06 01:42:48;;;;;;;5.10;3.15;;;;;;;6.77;69.62;98135.00;5035164;28;20025;-49
2021/12/06 01:45:14;;;;;;;5.55;2.70;;;;;;;6.72;69.13;98126.94;5035069;28;20032;-49
2021/12/06 01:47:41;;;;;;;6.65;2.47;;;;;;;6.71;69.16;98137.56;5035053;28;20018;-48
2021/12/06 01:50:16;;;;;;;5.07;2.65;;;;;;;6.71;69.14;98142.78;5017159;28;20038;-48
2021/12/06 01:52:45;;;;;;;9.80;8.27;;;;;;;6.67;69.24;98144.94;5035313;28;20376;-48
2021/12/06 01:55:16;;;;;;;7.15;4.53;;;;;;;6.67;69.33;98150.16;5034953;28;20032;-48
2021/12/06 01:57:42;;;;;;;4.43;2.72;;;;;;;6.69;68.95;98150.78;5034843;28;20033;-48
2021/12/06 02:00:12;;;;;;;4.97;3.05;;;;;;;6.71;69.15;98140.16;5017048;28;20487;-48
2021/12/06 02:02:38;;;;;;;6.53;2.80;;;;;;;6.72;69.48;98147.81;5033403;28;20056;-49
2021/12/06 02:05:04;;;;;;;4.78;2.70;;;;;;;6.76;69.28;98150.81;5016767;28;20492;-49
2021/12/06 02:07:31;;;;;;;3.38;2.67;;;;;;;6.79;69.16;98155.66;5034688;28;20045;-49
2021/12/06 02:09:57;;;;;;;40.33;35.78;;;;;;;6.77;68.55;98161.06;5016760;28;20042;-49
2021/12/06 02:12:27;;;;;;;7.38;5.43;;;;;;;6.73;68.96;98159.03;5034504;28;20104;-48
2021/12/06 02:15:31;;;;;;;12.30;10.50;;;;;;;6.69;68.78;98170.84;5034537;28;20029;-48
2021/12/06 02:17:43;;;;;;;5.82;3.30;;;;;;;6.67;69.29;98175.44;5033793;28;20511;-48
2021/12/06 02:20:20;;;;;;;6.72;2.40;;;;;;;6.67;69.20;98176.22;5034236;28;20507;-49
2021/12/06 02:22:46;;;;;;;5.57;2.88;;;;;;;6.64;69.07;98166.19;5034455;28;20025;-49
2021/12/06 02:25:16;;;;;;;5.10;2.90;;;;;;;6.64;68.20;98176.63;5034224;28;20075;-49
2021/12/06 02:27:43;;;;;;;19.52;12.88;;;;;;;6.60;68.42;98178.78;5034326;28;20499;-49
2021/12/06 02:30:10;;;;;;;5.85;3.10;;;;;;;6.64;68.42;98187.06;5016487;28;20056;-49
2021/12/06 02:32:36;;;;;;;4.78;2.58;;;;;;;6.67;68.23;98185.88;5034227;28;20017;-50
2021/12/06 02:35:07;;;;;;;7.85;2.35;;;;;;;6.65;68.31;98190.47;5034192;28;20021;-50
2021/12/06 02:37:34;;;;;;;7.55;3.03;;;;;;;6.62;67.80;98190.81;5033940;28;20081;-49
2021/12/06 02:40:04;;;;;;;10.65;3.97;;;;;;;6.55;67.90;98188.97;5016204;28;20084;-48
2021/12/06 02:42:29;;;;;;;6.38;3.03;;;;;;;6.38;68.03;98190.22;5034026;28;20108;-49
2021/12/06 02:44:55;;;;;;;11.25;4.13;;;;;;;6.18;68.14;98192.63;5033991;28;20101;-49
2021/12/06 02:47:22;;;;;;;13.27;8.38;;;;;;;6.05;68.88;98193.25;5033898;28;20064;-48
2021/12/06 02:49:48;;;;;;;8.05;3.20;;;;;;;6.06;69.51;98194.88;5016197;28;20164;-49
2021/12/06 02:52:14;;;;;;;6.03;3.83;;;;;;;6.14;69.23;98196.59;5016096;28;20483;-49
2021/12/06 02:54:41;;;;;;;5.47;4.18;;;;;;;6.13;68.62;98195.75;5033867;28;20033;-49
2021/12/06 02:57:20;;;;;;;4.18;3.00;;;;;;;6.10;68.36;98196.13;5033665;28;20036;-50
2021/12/06 02:59:48;;;;;;;13.38;8.60;;;;;;;6.05;68.91;98206.28;5016008;28;20047;-50
2021/12/06 03:02:19;;;;;;;6.53;3.67;;;;;;;6.03;69.02;98202.25;5033687;28;20075;-49
2021/12/06 03:04:46;;;;;;;4.00;3.00;;;;;;;6.05;69.28;98208.09;5033688;28;20025;-49
2021/12/06 03:07:12;;;;;;;5.50;4.05;;;;;;;6.02;69.00;98204.06;5033536;28;20463;-49
2021/12/06 03:09:40;;;;;;;37.65;28.65;;;;;;;5.95;69.09;98209.16;5033586;28;20398;-48
2021/12/06 03:12:26;;;;;;;8.10;5.10;;;;;;;5.90;68.71;98215.91;5033365;28;20036;-48
2021/12/06 03:14:56;;;;;;;27.13;17.95;;;;;;;5.76;68.80;98215.72;5033489;28;20029;-49
2021/12/06 03:17:24;;;;;;;8.68;7.10;;;;;;;5.71;68.66;98212.84;5033313;28;20590;-50
2021/12/06 03:19:50;;;;;;;29.35;26.00;;;;;;;5.67;69.54;98200.38;5015545;28;20406;-48
2021/12/06 03:22:16;;;;;;;46.25;41.25;;;;;;;5.75;69.72;98213.31;5033268;28;20083;-48
2021/12/06 03:24:43;;;;;;;4.13;3.20;;;;;;;5.81;69.11;98207.38;5033292;28;20029;-49
2021/12/06 03:27:10;;;;;;;5.97;3.50;;;;;;;5.82;69.00;98213.41;5033142;28;20032;-50
2021/12/06 03:29:38;;;;;;;18.88;11.80;;;;;;;5.81;69.31;98215.19;5033208;28;20045;-48
2021/12/06 03:32:04;;;;;;;6.43;3.50;;;;;;;5.83;68.79;98218.41;5032574;28;20025;-48
2021/12/06 03:34:31;;;;;;;6.68;3.50;;;;;;;5.92;69.67;98216.53;5015173;28;20112;-49
2021/12/06 03:37:09;;;;;;;12.02;9.07;;;;;;;5.96;68.83;98223.03;5032726;28;20049;-50
2021/12/06 03:39:39;;;;;;;21.08;10.07;;;;;;;5.99;69.44;98228.66;5015186;28;20030;-50
2021/12/06 03:42:08;;;;;;;25.90;22.67;;;;;;;6.07;68.76;98230.34;5032701;28;20096;-49
2021/12/06 03:44:35;;;;;;;15.52;12.90;;;;;;;6.12;69.19;98227.22;5032881;28;20017;-50
2021/12/06 03:47:05;;;;;;;4.65;4.20;;;;;;;5.98;68.36;98228.84;5014914;28;20113;-49
2021/12/06 03:49:31;;;;;;;10.75;8.27;;;;;;;5.82;68.49;98229.03;5032795;28;20037;-50
2021/12/06 03:51:57;;;;;;;6.45;3.95;;;;;;;5.78;69.18;98226.78;5032681;28;20076;-50
2021/12/06 03:54:26;;;;;;;5.30;3.35;;;;;;;5.70;68.93;98226.88;5032625;28;20033;-50
2021/12/06 03:56:52;;;;;;;9.35;4.88;;;;;;;5.74;69.06;98232.53;5032605;28;20021;-50
2021/12/06 03:59:18;;;;;;;14.07;5.10;;;;;;;5.85;69.63;98236.47;5014820;28;20558;-49
2021/12/06 04:01:46;;;;;;;5.88;3.10;;;;;;;5.96;68.63;98241.25;5032575;28;20067;-48
2021/12/06 04:04:12;;;;;;;6.13;4.20;;;;;;;6.00;68.77;98245.91;5032507;28;20036;-48
2021/12/06 04:06:43;;;;;;;13.93;9.38;;;;;;;5.98;68.93;98245.28;5032363;28;20022;-48
2021/12/06 04:09:10;;;;;;;8.82;5.00;;;;;;;5.99;68.93;98246.88;5032405;28;20112;-49
2021/12/06 04:11:37;;;;;;;17.02;10.18;;;;;;;5.85;68.66;98244.28;5032380;28;20431;-49
2021/12/06 04:14:05;;;;;;;10.20;3.92;;;;;;;5.76;69.75;98252.19;5032250;28;20029;-49
2021/12/06 04:16:31;;;;;;;10.50;4.38;;;;;;;5.68;69.24;98252.28;5032262;28;20024;-48
2021/12/06 04:18:56;;;;;;;5.88;4.32;;;;;;;5.61;69.25;98261.78;5014499;28;20049;-50
2021/12/06 04:21:24;;;;;;;13.15;10.38;;;;;;;5.56;69.82;98256.31;5032152;28;20033;-49
2021/12/06 04:23:51;;;;;;;7.97;4.88;;;;;;;5.61;70.02;98266.97;5032101;28;20416;-49
2021/12/06 04:26:17;;;;;;;8.40;4.05;;;;;;;5.76;70.45;98265.19;5031921;28;20029;-49
2021/12/06 04:28:48;;;;;;;5.40;2.67;;;;;;;6.02;69.75;98268.34;5032086;28;20025;-49
2021/12/06 04:31:15;;;;;;;14.88;8.00;;;;;;;6.01;69.19;98272.75;5032002;28;20052;-50
2021/12/06 04:33:41;;;;;;;5.22;3.83;;;;;;;6.06;68.89;98275.63;5032051;28;20025;-50
2021/12/06 04:36:07;;;;;;;8.80;3.42;;;;;;;5.93;68.89;98278.03;5031746;28;20057;-48
2021/12/06 04:38:33;;;;;;;8.27;4.10;;;;;;;5.86;69.46;98277.16;5032043;28;20026;-50
2021/12/06 04:40:59;;;;;;;7.25;4.38;;;;;;;5.89;69.63;98276.78;5031964;28;20079;-48
2021/12/06 04:43:25;;;;;;;12.30;9.20;;;;;;;5.95;69.51;98281.28;5031610;28;20040;-50
2021/12/06 04:45:51;;;;;;;4.78;3.58;;;;;;;5.91;68.96;98274.81;5013341;28;20030;-49
2021/12/06 04:48:17;;;;;;;5.85;3.58;;;;;;;5.95;69.26;98299.53;5031766;28;20029;-49
2021/12/06 04:50:43;;;;;;;4.30;3.90;;;;;;;5.94;68.25;98297.91;5031797;28;20022;-49
2021/12/06 04:53:23;;;;;;;4.90;3.90;;;;;;;5.80;68.31;98305.50;5030511;28;20028;-49
2021/12/06 04:55:54;;;;;;;32.85;12.95;;;;;;;5.68;68.96;98306.16;5031858;28;20029;-50
2021/12/06 04:58:30;;;;;;;9.02;5.20;;;;;;;5.60;68.87;98312.22;5031690;28;20097;-50
2021/12/06 05:01:16;;;;;;;4.57;3.25;;;;;;;5.71;69.76;98316.19;5014044;28;20039;-49
2021/12/06 05:03:42;;;;;;;;;;;;;;;5.80;69.97;98318.53;5032200;28;20034;-50
2021/12/06 05:06:13;;;;;;;7.60;3.85;;;;;;;5.90;69.93;98320.09;5031676;28;20308;-49
2021/12/06 05:08:44;;;;;;;7.50;3.90;;;;;;;6.00;69.87;98333.66;5031727;28;20037;-50
2021/12/06 05:11:10;;;;;;;17.20;8.80;;;;;;;6.06;68.45;98343.38;5013894;28;20491;-50
2021/12/06 05:13:38;;;;;;;15.93;14.30;;;;;;;5.91;69.13;98343.31;5031631;28;20402;-48
2021/12/06 05:16:05;;;;;;;8.73;4.63;;;;;;;5.77;69.27;98347.53;5031498;28;20017;-50
2021/12/06 05:18:30;;;;;;;9.50;4.72;;;;;;;5.70;69.31;98346.63;5031506;28;20021;-49
2021/12/06 05:20:56;;;;;;;5.10;3.38;;;;;;;5.67;70.19;98348.78;5031538;28;20018;-48
2021/12/06 05:23:22;;;;;;;6.47;4.05;;;;;;;5.70;69.76;98353.63;5031554;28;20487;-49
2021/12/06 05:25:48;;;;;;;8.43;4.40;;;;;;;5.62;69.16;98351.91;5031669;28;20108;-50
2021/12/06 05:28:15;;;;;;;7.95;4.90;;;;;;;5.52;69.93;98354.75;5013721;28;20029;-49
2021/12/06 05:30:42;;;;;;;7.90;4.22;;;;;;;5.50;69.92;98358.53;5031409;28;20391;-48
2021/12/06 05:33:17;;;;;;;8.82;4.10;;;;;;;5.52;69.96;98353.97;5031433;28;20026;-49
2021/12/06 05:35:44;;;;;;;13.60;6.13;;;;;;;5.45;70.11;98358.22;5031191;28;20128;-50
2021/12/06 05:38:09;;;;;;;16.77;6.93;;;;;;;5.37;70.62;98356.50;5031410;28;20417;-49
2021/12/06 05:40:35;;;;;;;18.75;5.25;;;;;;;5.31;70.20;98357.19;5031337;28;20033;-49
2021/12/06 05:43:03;;;;;;;33.15;15.68;;;;;;;5.33;71.51;98360.44;5031307;28;20018;-49
2021/12/06 05:45:31;;;;;;;49.33;32.28;;;;;;;5.38;70.30;98369.34;5031221;28;20120;-50
2021/12/06 05:47:57;;;;;;;10.68;7.07;;;;;;;5.35;70.73;98377.50;5031288;28;20076;-50
2021/12/06 05:50:24;;;;;;;6.30;4.50;;;;;;;5.42;70.97;98376.81;5031265;28;20491;-49
2021/12/06 05:52:54;;;;;;;27.50;6.03;;;;;;;5.46;70.67;98376.28;5031212;28;20073;-49
2021/12/06 05:55:21;;;;;;;39.97;10.32;;;;;;;5.86;71.93;98379.53;5031308;28;20025;-50
2021/12/06 05:57:47;;;;;;;21.92;5.60;;;;;;;6.54;69.75;98382.88;5034808;28;20021;-48
2021/12/06 06:00:15;;;;;;;28.45;11.82;;;;;;;7.05;67.71;98386.47;5034845;28;20032;-50
2021/12/06 06:02:41;;;;;;;43.33;11.88;;;;;;;7.32;67.24;98383.09;5034696;28;20414;-49
2021/12/06 06:05:09;;;;;;;20.42;7.28;;;;;;;7.46;66.38;98376.19;5034730;28;20112;-50
2021/12/06 06:07:34;;;;;;;18.38;5.15;;;;;;;7.49;66.19;98390.72;5016806;28;20029;-50
2021/12/06 06:10:00;;;;;;;17.42;5.00;;;;;;;7.34;65.57;98401.19;5034682;28;20176;-49
2021/12/06 06:12:26;;;;;;;9.85;5.35;;;;;;;6.89;66.33;98396.13;5034638;28;20025;-50
2021/12/06 06:14:53;;;;;;;28.40;6.60;;;;;;;6.77;67.01;98405.41;5016775;28;20553;-50
2021/12/06 06:17:20;;;;;;;41.00;18.00;;;;;;;6.86;67.33;98409.56;5034478;28;20072;-49
2021/12/06 06:19:52;;;;;;;20.20;11.07;;;;;;;7.09;66.12;98408.59;5034513;28;20037;-50
2021/12/06 06:22:18;;;;;;;17.67;7.70;;;;;;;6.93;65.29;98422.66;5034458;28;20022;-49
2021/12/06 06:24:43;;;;;;;11.32;5.90;;;;;;;6.34;65.68;98431.34;5016663;28;20032;-49
2021/12/06 06:27:09;;;;;;;14.40;5.45;;;;;;;6.02;66.91;98441.09;5016426;28;20486;-49
2021/12/06 06:29:35;;;;;;;13.15;5.47;;;;;;;5.60;66.59;98439.78;5034256;28;20487;-49
2021/12/06 06:32:02;;;;;;;9.23;5.68;;;;;;;5.25;68.80;98452.38;5034264;28;20480;-49
2021/12/06 06:34:28;;;;;;;26.58;14.23;;;;;;;5.23;69.26;98451.72;5034088;28;20021;-49
2021/12/06 06:36:54;;;;;;;10.93;8.38;;;;;;;5.37;69.71;98458.81;5033906;28;20120;-50
2021/12/06 06:39:22;;;;;;;8.18;5.22;;;;;;;5.47;69.20;98457.75;5034151;28;20021;-48
2021/12/06 06:41:50;;;;;;;11.82;6.25;;;;;;;5.51;69.39;98461.63;5034023;28;20025;-49
2021/12/06 06:44:17;;;;;;;7.32;5.47;;;;;;;5.47;68.65;98452.56;5016328;28;20022;-50
2021/12/06 06:46:45;;;;;;;11.90;7.72;;;;;;;5.36;69.57;98451.19;5033881;28;20021;-50
2021/12/06 06:49:12;;;;;;;18.20;8.65;;;;;;;5.27;69.39;98460.00;5032634;28;20065;-50
2021/12/06 06:51:38;;;;;;;31.98;22.23;;;;;;;5.37;69.75;98460.59;5033885;28;20475;-49
2021/12/06 06:54:04;;;;;;;28.40;21.60;;;;;;;5.50;70.09;98460.03;5033869;28;20075;-50
2021/12/06 06:56:30;;;;;;;12.82;8.38;;;;;;;5.62;69.39;98465.66;5033779;28;20030;-49
2021/12/06 06:58:56;;;;;;;19.52;8.00;;;;;;;5.64;70.05;98477.50;5015999;28;20033;-48
2021/12/06 07:01:22;;;;;;;12.57;9.68;;;;;;;5.66;69.49;98474.72;5033747;28;20092;-49
2021/12/06 07:03:53;;;;;;;15.10;9.63;;;;;;;5.59;68.93;98480.63;5033639;28;20384;-48
2021/12/06 07:06:25;;;;;;;17.08;10.80;;;;;;;5.46;69.66;98484.78;5033557;28;20029;-50
2021/12/06 07:08:53;;;;;;;15.52;9.85;;;;;;;5.35;69.78;98489.41;5032499;28;20041;-49
2021/12/06 07:11:19;;;;;;;61.38;53.78;;;;;;;5.33;70.05;98491.38;5033507;28;20048;-50
2021/12/06 07:13:47;;;;;;;10.55;8.98;;;;;;;5.45;70.11;98498.78;5033428;28;20508;-48
2021/12/06 07:16:16;;;;;;;21.13;12.27;;;;;;;5.44;69.33;98510.97;5033290;28;20030;-50
2021/12/06 07:18:43;;;;;;;52.10;38.72;;;;;;;5.47;70.14;98512.41;5033362;28;20018;-49
2021/12/06 07:21:11;;;;;;;20.20;14.73;;;;;;;5.64;69.71;98521.75;5033344;28;20017;-49
2021/12/06 07:23:38;;;;;;;39.88;29.33;;;;;;;5.89;69.90;98524.19;5033346;28;20438;-50
2021/12/06 07:26:12;;;;;;;48.08;31.35;;;;;;;6.10;68.75;98519.19;5033158;28;20025;-49
2021/12/06 07:28:38;;;;;;;26.25;15.88;;;;;;;6.29;68.77;98528.28;5015487;28;20030;-51
2021/12/06 07:31:06;;;;;;;28.45;13.02;;;;;;;6.41;68.19;98531.28;5033154;28;20088;-49
2021/12/06 07:33:35;;;;;;;24.38;10.52;;;;;;;6.49;67.87;98530.41;5033006;28;20021;-50
2021/12/06 07:36:03;;;;;;;10.20;6.97;;;;;;;6.47;67.40;98529.78;5032802;28;20505;-50
2021/12/06 07:38:29;;;;;;;12.27;7.85;;;;;;;6.37;67.76;98536.03;5015252;28;20025;-48
2021/12/06 07:40:56;;;;;;;13.15;6.95;;;;;;;6.41;67.60;98533.88;5032989;28;20013;-50
2021/12/06 07:43:23;;;;;;;11.68;6.80;;;;;;;6.52;68.10;98530.03;5033121;28;20025;-49
2021/12/06 07:45:48;;;;;;;14.07;6.93;;;;;;;6.63;67.70;98534.81;5033104;28;20021;-50
2021/12/06 07:48:15;;;;;;;13.35;6.82;;;;;;;6.88;67.41;98545.81;5032823;28;20032;-48
2021/12/06 07:50:41;;;;;;;15.10;6.63;;;;;;;7.08;66.70;98550.47;5014914;28;20369;-49
2021/12/06 07:53:08;;;;;;;10.45;6.03;;;;;;;7.24;65.71;98554.69;5032716;28;20039;-50
2021/12/06 07:55:34;;;;;;;9.75;6.22;;;;;;;7.42;65.71;98567.38;5014841;28;20035;-49
2021/12/06 07:58:04;;;;;;;12.88;9.13;;;;;;;7.58;65.16;98564.53;5032643;28;20049;-50
2021/12/06 08:00:37;;;;;;;14.48;5.82;;;;;;;7.68;65.56;98575.50;5032436;28;20025;-50
2021/12/06 08:03:02;;;;;;;15.40;5.75;;;;;;;7.82;64.57;98570.41;5014871;28;20033;-50
2021/12/06 08:05:35;;;;;;;12.85;6.55;;;;;;;7.89;63.90;98584.38;5014664;28;20092;-50
2021/12/06 08:08:06;;;;;;;74.03;9.98;;;;;;;7.94;63.88;98590.63;5014704;28;20124;-48
2021/12/06 08:10:36;;;;;;;46.47;9.38;;;;;;;7.94;63.75;98588.03;5032362;28;20033;-49
2021/12/06 08:13:03;;;;;;;55.55;8.32;;;;;;;7.86;63.50;98587.34;5032425;28;20372;-49
2021/12/06 08:15:29;;;;;;;80.10;8.73;;;;;;;7.91;63.77;98593.63;5032319;28;20076;-50
2021/12/06 08:17:55;;;;;;;57.30;10.60;;;;;;;7.94;63.51;98598.47;5032272;28;20089;-50
2021/12/06 08:20:21;;;;;;;25.60;5.40;;;;;;;7.95;63.48;98602.72;5032062;28;20032;-48
2021/12/06 08:22:47;;;;;;;32.95;6.50;;;;;;;7.97;63.19;98605.16;5014552;28;20052;-49
2021/12/06 08:25:15;;;;;;;18.38;8.00;;;;;;;7.95;62.85;98604.53;5032187;28;20128;-50
2021/12/06 08:27:42;;;;;;;30.95;8.82;;;;;;;7.96;63.26;98606.94;5014347;28;20029;-49
2021/12/06 08:30:10;;;;;;;25.67;6.90;;;;;;;7.95;63.21;98613.19;5032129;28;20052;-49
2021/12/06 08:32:36;;;;;;;41.35;7.65;;;;;;;7.90;63.04;98622.56;5032100;28;20025;-48
2021/12/06 08:35:03;;;;;;;21.30;7.75;;;;;;;7.80;62.74;98628.88;5032014;28;20072;-49
2021/12/06 08:37:31;;;;;;;48.30;10.15;;;;;;;7.69;62.70;98629.38;5031818;28;20060;-50
2021/12/06 08:39:56;;;;;;;15.70;7.60;;;;;;;7.64;63.25;98631.69;5031961;28;20537;-49
2021/12/06 08:42:23;;;;;;;20.00;10.48;;;;;;;7.54;62.77;98641.63;5031960;28;20033;-50
2021/12/06 08:44:49;;;;;;;17.42;10.27;;;;;;;7.44;62.54;98651.53;5014179;28;20633;-49
2021/12/06 08:47:17;;;;;;;22.42;11.43;;;;;;;7.16;63.13;98653.00;5031870;28;20022;-50
2021/12/06 08:49:43;;;;;;;26.33;12.13;;;;;;;6.92;63.79;98654.03;5031849;28;20017;-49
2021/12/06 08:52:10;;;;;;;27.10;14.80;;;;;;;6.76;64.41;98648.94;5031576;28;20106;-50
2021/12/06 08:54:36;;;;;;;23.33;13.40;;;;;;;6.52;64.15;98649.97;5031843;28;20522;-49
2021/12/06 08:57:03;;;;;;;23.75;12.52;;;;;;;6.40;64.51;98653.00;5014019;28;20029;-50
2021/12/06 08:59:29;;;;;;;23.05;14.43;;;;;;;6.40;64.85;98658.22;5031729;28;20017;-49
2021/12/06 09:01:57;;;;;;;21.52;11.65;;;;;;;6.50;64.65;98652.75;5031659;28;20501;-48
2021/12/06 09:04:26;;;;;;;18.08;11.65;;;;;;;6.58;64.59;98657.09;5031725;28;20021;-49
2021/12/06 09:06:55;;;;;;;50.80;35.58;;;;;;;6.52;64.16;98657.78;5031656;28;20018;-49
2021/12/06 09:09:21;;;;;;;466.40;263.77;;;;;;;6.57;64.58;98663.28;5031586;28;20372;-50
2021/12/06 09:11:49;;;;;;;106.05;33.72;;;;;;;6.51;64.84;98662.19;5031597;28;20072;-49
2021/12/06 09:14:17;;;;;;;375.38;242.73;;;;;;;6.50;65.39;98665.78;5013852;28;20586;-49
2021/12/06 09:16:43;;;;;;;505.25;449.85;;;;;;;6.75;65.29;98673.41;5031750;28;20037;-48
2021/12/06 09:19:11;;;;;;;150.25;76.88;;;;;;;6.99;64.69;98688.84;5031536;28;20076;-49
2021/12/06 09:21:39;;;;;;;654.03;454.75;;;;;;;7.08;64.03;98684.34;5031589;28;20079;-49
2021/12/06 09:24:09;;;;;;;631.47;477.13;;;;;;;7.19;64.30;98693.56;5031475;28;20029;-47
2021/12/06 09:26:36;;;;;;;109.43;74.35;;;;;;;7.34;63.47;98701.41;5013625;28;20057;-48
2021/12/06 09:29:03;;;;;;;21.08;13.77;;;;;;;7.37;63.34;98699.25;5031580;28;20018;-48
2021/12/06 09:31:29;;;;;;;15.15;9.80;;;;;;;7.34;62.96;98697.00;5033608;28;20112;-50
2021/12/06 09:33:55;;;;;;;19.20;11.32;;;;;;;7.35;63.57;98703.84;5035350;28;20400;-49
2021/12/06 09:36:21;;;;;;;20.63;10.48;;;;;;;7.43;63.05;98697.75;5035113;28;20037;-50
2021/12/06 09:38:47;;;;;;;38.58;11.50;;;;;;;7.45;62.86;98705.41;5035249;28;20038;-48
2021/12/06 09:41:21;;;;;;;27.08;10.55;;;;;;;7.44;63.49;98701.94;5035196;28;20027;-48
2021/12/06 09:43:48;;;;;;;17.92;9.25;;;;;;;7.35;62.34;98710.88;5035148;28;20060;-48
2021/12/06 09:46:16;;;;;;;18.17;8.77;;;;;;;7.18;62.77;98712.81;5035005;28;20067;-49
2021/12/06 09:48:44;;;;;;;22.90;9.30;;;;;;;7.24;63.01;98714.72;5017284;28;20076;-49
2021/12/06 09:51:17;;;;;;;15.52;8.82;;;;;;;7.37;62.82;98721.94;5017179;28;20499;-49
2021/12/06 09:53:45;;;;;;;32.03;10.13;;;;;;;7.43;62.57;98720.44;5035069;28;20026;-48
2021/12/06 09:56:16;;;;;;;20.30;8.77;;;;;;;7.42;62.29;98724.81;5017143;28;20026;-48
2021/12/06 09:58:43;;;;;;;18.13;7.97;;;;;;;7.38;62.06;98723.56;5035061;28;20064;-50
2021/12/06 10:01:14;;;;;;;14.75;8.85;;;;;;;7.37;62.65;98733.19;5034908;28;20109;-49
2021/12/06 10:03:40;;;;;;;13.52;9.57;;;;;;;7.44;62.61;98740.31;5017160;28;20033;-50
2021/12/06 10:06:07;;;;;;;22.40;9.02;;;;;;;7.32;62.21;98734.72;5034553;28;20025;-49
2021/12/06 10:08:36;;;;;;;433.67;360.15;;;;;;;7.37;62.37;98741.03;5034603;28;20443;-49
2021/12/06 10:11:04;;;;;;;73.20;50.70;;;;;;;7.56;62.59;98736.28;5034648;28;20056;-49
2021/12/06 10:13:30;;;;;;;27.08;21.00;;;;;;;7.68;62.13;98737.44;5034618;28;20076;-48
2021/12/06 10:15:56;;;;;;;45.35;31.02;;;;;;;7.79;62.36;98739.63;5034509;28;20040;-48
2021/12/06 10:18:22;;;;;;;28.38;15.10;;;;;;;7.95;61.39;98733.38;5034615;28;20100;-49
2021/12/06 10:20:49;;;;;;;13.98;9.80;;;;;;;8.07;61.26;98736.34;5016678;28;20116;-53
2021/12/06 10:23:20;;;;;;;13.77;10.02;;;;;;;8.06;61.11;98749.59;5034531;28;20033;-50
2021/12/06 10:25:50;;;;;;;16.40;8.75;;;;;;;8.05;61.31;98745.34;5034251;28;20060;-50
2021/12/06 10:28:18;;;;;;;15.13;8.15;;;;;;;8.08;60.50;98752.84;5034470;28;20494;-48
2021/12/06 10:30:51;;;;;;;11.45;7.63;;;;;;;8.06;60.95;98750.41;5034335;28;20018;-50
2021/12/06 10:33:20;;;;;;;54.75;12.15;;;;;;;8.30;60.93;98740.63;5016549;28;20040;-50
2021/12/06 10:35:52;;;;;;;34.25;11.70;;;;;;;8.45;60.23;98733.59;5016200;28;20048;-50
2021/12/06 10:38:31;;;;;;;33.95;10.98;;;;;;;8.62;60.17;98738.59;5016320;28;20084;-48
2021/12/06 10:41:09;;;;;;;18.52;8.73;;;;;;;8.67;59.81;98742.25;5034049;28;20029;-49
2021/12/06 10:43:36;;;;;;;15.00;8.77;;;;;;;8.56;59.57;98747.97;5016182;28;20025;-50
2021/12/06 10:46:04;;;;;;;20.00;9.07;;;;;;;8.52;59.89;98744.91;5016291;28;20112;-50
2021/12/06 10:48:33;;;;;;;13.00;8.10;;;;;;;8.55;59.64;98749.78;5016169;28;20021;-50
2021/12/06 10:51:03;;;;;;;10.93;7.88;;;;;;;8.63;59.37;98750.66;5016127;28;20032;-50
2021/12/06 10:53:42;;;;;;;14.07;8.73;;;;;;;8.74;59.22;98752.78;5033902;28;20020;-48
2021/12/06 10:56:19;;;;;;;11.00;7.53;;;;;;;8.79;59.19;98747.78;5033928;28;20491;-50
2021/12/06 10:58:50;;;;;;;19.92;12.52;;;;;;;8.88;58.89;98749.28;5033846;28;20029;-50
2021/12/06 11:01:28;;;;;;;13.75;7.72;;;;;;;9.02;58.74;98744.19;5033853;28;20033;-49
2021/12/06 11:03:56;;;;;;;8.50;7.60;;;;;;;9.02;58.49;98739.75;5033796;28;20120;-50
2021/12/06 11:06:30;;;;;;;10.52;7.40;;;;;;;9.01;58.53;98735.50;5033539;28;20025;-49
2021/12/06 11:08:59;;;;;;;16.25;9.18;;;;;;;9.15;58.66;98731.97;5033682;28;20029;-49
2021/12/06 11:11:36;;;;;;;15.40;7.72;;;;;;;9.14;58.47;98735.63;5015689;28;20021;-50
2021/12/06 11:14:10;;;;;;;11.00;7.43;;;;;;;9.35;57.79;98740.00;5033593;28;20530;-50
2021/12/06 11:16:49;;;;;;;10.00;7.15;;;;;;;9.43;57.56;98736.41;5033482;28;20056;-48
2021/12/06 11:19:17;;;;;;;13.68;7.47;;;;;;;9.27;57.02;98745.38;5015675;28;20124;-48
2021/12/06 11:21:42;;;;;;;13.35;7.10;;;;;;;8.90;57.59;98734.22;5033307;28;20033;-50
2021/12/06 11:24:26;;;;;;;11.77;7.43;;;;;;;8.82;58.62;98736.97;5033376;28;20017;-50
2021/12/06 11:27:05;;;;;;;9.15;6.85;;;;;;;8.99;57.68;98742.72;5015433;28;20517;-48
2021/12/06 11:29:44;;;;;;;18.52;7.03;;;;;;;8.98;58.20;98735.88;5033446;28;20113;-49
2021/12/06 11:32:12;;;;;;;11.20;6.80;;;;;;;9.24;57.43;98737.09;5033132;28;20113;-50
2021/12/06 11:34:50;;;;;;;10.60;6.40;;;;;;;9.39;56.80;98724.72;5015242;28;20579;-50
2021/12/06 11:37:34;;;;;;;10.73;7.10;;;;;;;9.65;57.10;98723.25;5032872;28;20268;-49
2021/12/06 11:40:23;;;;;;;8.38;5.95;;;;;;;9.99;55.47;98727.66;5033056;28;20028;-50
2021/12/06 11:42:52;;;;;;;10.07;6.93;;;;;;;9.99;55.17;98735.53;5015255;28;20454;-50
2021/12/06 11:45:52;;;;;;;17.90;6.65;;;;;;;9.88;55.49;98733.44;5032889;28;20075;-50
2021/12/06 11:48:31;;;;;;;16.80;6.25;;;;;;;9.80;55.50;98742.31;5032845;28;20037;-50